createdAt,value
2023-01-25T00:00:07.732Z,27.00
2023-01-25T00:02:34.999Z,24.33
2023-01-25T01:50:24.869Z,33.00
2023-01-25T01:52:53.739Z,32.33
2023-01-25T01:55:22.841Z,29.00
2023-01-25T01:57:55.888Z,26.33
2023-01-25T02:00:29.331Z,30.67
2023-01-25T02:02:59.246Z,29.33
2023-01-25T02:05:38.105Z,25.33
2023-01-25T02:08:07.761Z,28.00
2023-01-25T02:10:38.184Z,4.00
2023-01-25T02:13:04.956Z,22.67
2023-01-25T02:15:40.568Z,32.00
2023-01-25T02:18:09.901Z,31.67
2023-01-25T02:20:41.967Z,26.00
2023-01-25T02:23:22.162Z,31.67
2023-01-25T02:25:50.913Z,28.00
2023-01-25T02:28:25.579Z,29.00
2023-01-25T02:30:52.765Z,33.00
2023-01-25T02:33:22.351Z,28.67
2023-01-25T02:35:55.892Z,31.67
2023-01-25T02:38:23.001Z,30.33
2023-01-25T02:41:03.050Z,33.00
2023-01-25T02:43:34.872Z,30.00
2023-01-25T02:46:14.271Z,30.00
2023-01-25T02:48:44.761Z,32.67
2023-01-25T02:51:12.343Z,23.50
2023-01-25T02:53:40.864Z,24.00
2023-01-25T02:56:09.271Z,24.00
2023-01-25T02:58:36.117Z,29.00
2023-01-25T03:01:03.159Z,27.00
2023-01-25T03:03:30.030Z,24.33
2023-01-25T03:05:57.899Z,26.00
2023-01-25T03:08:25.493Z,30.67
2023-01-25T03:10:57.752Z,30.00
2023-01-25T03:13:27.596Z,23.00
2023-01-25T03:16:00.602Z,25.75
2023-01-25T03:18:27.648Z,31.00
2023-01-25T03:20:55.036Z,28.75
2023-01-25T03:23:22.138Z,31.25
2023-01-25T03:25:50.800Z,25.00
2023-01-25T03:28:18.406Z,24.50
2023-01-25T03:30:53.996Z,27.25
2023-01-25T03:33:21.030Z,17.50
2023-01-25T03:35:52.257Z,24.00
2023-01-25T03:38:19.464Z,24.75
2023-01-25T03:40:47.512Z,24.50
2023-01-25T03:43:15.671Z,28.67
2023-01-25T03:45:43.039Z,24.67
2023-01-25T03:48:11.330Z,22.67
2023-01-25T03:50:38.689Z,17.00
2023-01-25T03:53:05.505Z,17.33
2023-01-25T03:55:32.484Z,20.33
2023-01-25T03:57:59.739Z,22.33
2023-01-25T04:00:26.594Z,18.00
2023-01-25T04:02:59.363Z,23.67
2023-01-25T04:05:28.833Z,21.00
2023-01-25T04:07:55.675Z,14.33
2023-01-25T04:10:30.653Z,19.67
2023-01-25T04:12:57.651Z,21.67
2023-01-25T04:15:24.856Z,21.00
2023-01-25T04:17:51.891Z,20.67
2023-01-25T04:20:22.892Z,19.00
2023-01-25T04:22:51.299Z,10.67
2023-01-25T04:25:20.328Z,21.00
2023-01-25T04:27:51.784Z,23.33
2023-01-25T04:30:19.205Z,20.67
2023-01-25T04:32:48.254Z,23.33
2023-01-25T04:35:25.848Z,21.67
2023-01-25T04:37:55.465Z,24.67
2023-01-25T04:40:24.567Z,24.67
2023-01-25T04:42:51.387Z,21.67
2023-01-25T04:45:18.542Z,19.33
2023-01-25T04:47:45.403Z,25.33
2023-01-25T04:50:12.189Z,22.67
2023-01-25T04:52:39.220Z,20.33
2023-01-25T04:55:09.046Z,20.33
2023-01-25T04:57:41.334Z,14.00
2023-01-25T05:00:11.136Z,23.67
2023-01-25T05:02:38.529Z,13.33
2023-01-25T05:05:08.896Z,22.33
2023-01-25T05:07:36.362Z,24.33
2023-01-25T05:10:05.915Z,23.67
2023-01-25T05:12:34.557Z,22.67
2023-01-25T05:15:07.948Z,21.67
2023-01-25T05:17:35.475Z,23.00
2023-01-25T05:20:03.208Z,18.67
2023-01-25T05:22:30.842Z,20.33
2023-01-25T05:24:57.749Z,23.00
2023-01-25T05:27:25.737Z,20.33
2023-01-25T05:29:58.739Z,23.00
2023-01-25T05:32:44.756Z,23.33
2023-01-25T05:35:13.008Z,23.67
2023-01-25T05:37:40.097Z,22.33
2023-01-25T05:40:12.414Z,20.33
2023-01-25T05:42:40.021Z,23.00
2023-01-25T05:45:14.923Z,21.33
2023-01-25T05:47:44.681Z,24.00
2023-01-25T05:50:11.739Z,22.67
2023-01-25T05:52:51.135Z,21.33
2023-01-25T05:55:18.217Z,15.67
2023-01-25T05:57:45.088Z,16.25
2023-01-25T06:00:14.836Z,21.50
2023-01-25T06:02:42.152Z,21.50
2023-01-25T06:05:14.258Z,19.50
2023-01-25T06:07:41.198Z,22.50
2023-01-25T06:10:10.199Z,16.25
2023-01-25T06:12:37.272Z,19.50
2023-01-25T06:15:04.974Z,18.50
2023-01-25T06:17:33.892Z,19.50
2023-01-25T06:20:17.001Z,19.33
2023-01-25T06:23:19.110Z,15.00
2023-01-25T06:25:46.281Z,18.00
2023-01-25T06:28:13.014Z,14.75
2023-01-25T06:30:40.245Z,18.50
2023-01-25T06:33:08.526Z,18.00
2023-01-25T06:35:35.566Z,19.00
2023-01-25T06:38:02.314Z,22.25
2023-01-25T06:40:29.589Z,16.50
2023-01-25T06:43:05.277Z,23.00
2023-01-25T06:45:32.072Z,20.00
2023-01-25T06:47:58.877Z,23.00
2023-01-25T06:50:27.386Z,23.67
2023-01-25T06:52:54.981Z,23.67
2023-01-25T06:55:22.672Z,21.33
2023-01-25T06:57:49.731Z,20.67
2023-01-25T07:00:18.143Z,16.00
2023-01-25T07:02:45.054Z,21.67
2023-01-25T07:05:12.224Z,17.00
2023-01-25T07:07:40.412Z,20.00
2023-01-25T07:10:08.890Z,19.75
2023-01-25T07:12:36.039Z,19.25
2023-01-25T07:15:03.855Z,16.50
2023-01-25T07:17:30.655Z,16.75
2023-01-25T07:19:57.457Z,18.75
2023-01-25T07:22:25.277Z,15.25
2023-01-25T07:24:54.449Z,11.25
2023-01-25T07:27:21.281Z,14.25
2023-01-25T07:29:48.016Z,15.33
2023-01-25T07:32:14.752Z,16.67
2023-01-25T07:34:41.561Z,18.75
2023-01-25T07:37:08.357Z,22.25
2023-01-25T07:39:35.153Z,24.75
2023-01-25T07:42:03.672Z,19.75
2023-01-25T07:44:32.461Z,23.25
2023-01-25T07:47:09.536Z,20.00
2023-01-25T07:49:36.304Z,18.00
2023-01-25T07:52:03.527Z,16.50
2023-01-25T07:54:30.469Z,16.00
2023-01-25T07:56:57.633Z,19.25
2023-01-25T07:59:26.907Z,22.00
2023-01-25T08:01:53.952Z,17.50
2023-01-25T08:04:20.893Z,16.75
2023-01-25T08:06:47.793Z,18.75
2023-01-25T08:09:18.275Z,20.50
2023-01-25T08:11:45.489Z,15.75
2023-01-25T08:14:14.432Z,16.00
2023-01-25T08:16:42.641Z,19.25
2023-01-25T08:19:10.559Z,17.25
2023-01-25T08:21:37.950Z,17.50
2023-01-25T08:24:07.456Z,17.75
2023-01-25T08:26:36.400Z,19.00
2023-01-25T08:29:04.327Z,18.50
2023-01-25T08:31:34.346Z,16.00
2023-01-25T08:34:03.942Z,16.75
2023-01-25T08:36:31.184Z,18.00
2023-01-25T08:39:01.815Z,15.75
2023-01-25T08:41:31.223Z,14.50
2023-01-25T08:43:58.533Z,12.50
2023-01-25T08:46:31.357Z,15.25
2023-01-25T08:49:00.839Z,14.25
2023-01-25T08:51:31.627Z,15.75
2023-01-25T08:54:03.014Z,14.75
2023-01-25T08:56:29.824Z,10.00
2023-01-25T08:58:56.883Z,16.25
2023-01-25T09:01:23.910Z,14.50
2023-01-25T09:03:51.533Z,15.00
2023-01-25T09:06:19.357Z,14.00
2023-01-25T09:08:47.973Z,16.00
2023-01-25T09:11:18.770Z,12.00
2023-01-25T09:13:46.208Z,14.50
2023-01-25T09:16:18.175Z,16.25
2023-01-25T09:18:45.516Z,11.75
2023-01-25T09:21:15.266Z,13.75
2023-01-25T09:23:51.001Z,14.25
2023-01-25T09:26:26.117Z,15.00
2023-01-25T09:28:54.752Z,15.00
2023-01-25T09:31:24.071Z,12.75
2023-01-25T09:34:15.253Z,17.00
2023-01-25T09:36:42.204Z,14.25
2023-01-25T09:39:10.240Z,17.75
2023-01-25T09:42:15.098Z,14.50
2023-01-25T09:45:08.173Z,15.50
2023-01-25T09:47:47.488Z,16.75
2023-01-25T09:50:32.864Z,17.25
2023-01-25T09:53:22.517Z,10.25
2023-01-25T09:55:53.926Z,15.25
2023-01-25T09:58:30.930Z,16.25
2023-01-25T10:01:39.064Z,15.50
2023-01-25T10:04:16.694Z,17.00
2023-01-25T10:07:00.576Z,15.75
2023-01-25T10:09:42.051Z,15.75
2023-01-25T10:12:19.380Z,17.25
2023-01-25T10:14:49.389Z,16.25
2023-01-25T10:17:37.743Z,15.00
2023-01-25T10:20:42.552Z,10.25
2023-01-25T10:23:45.370Z,15.67
2023-01-25T10:26:27.234Z,17.33
2023-01-25T10:29:11.361Z,21.00
2023-01-25T10:31:46.894Z,19.00
2023-01-25T10:34:20.432Z,21.00
2023-01-25T10:36:58.127Z,20.00
2023-01-25T10:39:26.139Z,23.00
2023-01-25T10:41:58.110Z,21.33
2023-01-25T10:44:26.269Z,20.67
2023-01-25T10:47:06.937Z,18.33
2023-01-25T10:49:42.683Z,20.67
2023-01-25T10:52:19.160Z,17.67
2023-01-25T10:54:47.468Z,22.67
2023-01-25T10:57:20.369Z,15.75
2023-01-25T10:59:52.935Z,6.33
2023-01-25T11:02:45.247Z,18.00
2023-01-25T11:05:34.613Z,11.00
2023-01-25T11:08:24.596Z,16.67
2023-01-25T11:10:54.676Z,17.67
2023-01-25T11:13:25.329Z,19.00
2023-01-25T11:15:56.761Z,17.00
2023-01-25T11:18:29.225Z,19.00
2023-01-25T11:21:11.420Z,18.33
2023-01-25T11:23:38.675Z,18.00
2023-01-25T11:26:15.135Z,16.67
2023-01-25T11:28:43.237Z,21.33
2023-01-25T11:31:14.171Z,15.00
2023-01-25T11:33:42.886Z,20.00
2023-01-25T11:36:33.369Z,12.67
2023-01-25T11:39:26.046Z,13.50
2023-01-25T11:42:09.819Z,12.50
2023-01-25T11:45:10.469Z,13.00
2023-01-25T11:47:58.393Z,14.50
2023-01-25T11:50:36.007Z,15.25
2023-01-25T11:53:33.569Z,14.00
2023-01-25T11:56:15.108Z,17.25
2023-01-25T11:59:05.582Z,14.00
2023-01-25T12:01:54.784Z,14.50
2023-01-25T12:04:57.550Z,14.50
2023-01-25T12:07:45.237Z,15.00
2023-01-25T12:10:31.306Z,8.75
2023-01-25T12:13:15.829Z,15.75
2023-01-25T12:16:22.335Z,15.50
2023-01-25T12:19:25.675Z,14.25
2023-01-25T12:22:18.665Z,15.00
2023-01-25T12:25:01.904Z,16.75
2023-01-25T12:27:46.485Z,13.25
2023-01-25T12:30:23.243Z,14.25
2023-01-25T12:33:08.900Z,14.50
2023-01-25T12:35:49.287Z,16.75
2023-01-25T12:38:26.398Z,16.25
2023-01-25T12:41:02.390Z,13.75
2023-01-25T12:43:38.105Z,20.50
2023-01-25T12:46:21.524Z,17.75
2023-01-25T12:48:55.508Z,10.25
2023-01-25T12:51:28.467Z,13.50
2023-01-25T12:53:58.363Z,19.75
2023-01-25T12:56:39.503Z,17.00
2023-01-25T12:59:17.436Z,16.75
2023-01-25T13:01:55.510Z,15.50
2023-01-25T13:04:50.571Z,17.25
2023-01-25T13:07:31.698Z,17.50
2023-01-25T13:10:10.246Z,14.00
2023-01-25T13:12:58.481Z,14.75
2023-01-25T13:15:38.058Z,18.50
2023-01-25T13:18:46.557Z,15.50
2023-01-25T13:21:42.895Z,14.25
2023-01-25T13:24:22.699Z,16.75
2023-01-25T13:27:25.003Z,15.00
2023-01-25T13:29:59.159Z,13.25
2023-01-25T13:33:03.923Z,13.75
2023-01-25T13:35:34.797Z,7.25
2023-01-25T13:38:23.707Z,13.50
2023-01-25T13:41:21.256Z,9.50
2023-01-25T13:44:09.646Z,17.33
2023-01-25T13:46:38.058Z,16.75
2023-01-25T13:49:19.239Z,21.33
2023-01-25T13:51:46.299Z,12.67
2023-01-25T13:54:16.652Z,15.33
2023-01-25T13:56:44.029Z,16.67
2023-01-25T13:59:25.752Z,18.00
2023-01-25T14:01:54.760Z,13.25
2023-01-25T14:04:21.672Z,11.25
2023-01-25T14:06:48.711Z,19.75
2023-01-25T14:09:20.504Z,16.75
2023-01-25T14:11:55.467Z,14.75
2023-01-25T14:14:27.276Z,12.00
2023-01-25T14:17:20.091Z,15.00
2023-01-25T14:19:49.048Z,14.25
2023-01-25T14:22:25.819Z,11.50
2023-01-25T14:25:18.897Z,15.75
2023-01-25T14:27:50.233Z,14.50
2023-01-25T14:30:22.474Z,12.00
2023-01-25T14:32:54.284Z,16.00
2023-01-25T14:38:33.418Z,13.75
2023-01-25T14:41:12.726Z,14.75
2023-01-25T14:43:44.059Z,12.75
2023-01-25T14:46:26.985Z,16.00
2023-01-25T14:49:24.415Z,15.50
2023-01-25T14:52:01.938Z,15.75
2023-01-25T14:54:34.301Z,14.50
2023-01-25T14:57:32.839Z,12.75
2023-01-25T15:00:01.475Z,14.75
2023-01-25T15:02:44.480Z,13.75
2023-01-25T15:05:22.241Z,23.75
2023-01-25T15:07:52.537Z,18.00
2023-01-25T15:10:22.994Z,19.25
2023-01-25T15:13:13.735Z,19.75
2023-01-25T15:15:54.995Z,13.75
2023-01-25T15:18:44.726Z,14.00
2023-01-25T15:21:15.984Z,17.50
2023-01-25T15:23:44.980Z,19.00
2023-01-25T15:26:21.336Z,19.50
2023-01-25T15:28:49.742Z,14.50
2023-01-25T15:31:19.355Z,16.25
2023-01-25T15:33:46.999Z,13.75
2023-01-25T15:36:16.125Z,17.25
2023-01-25T15:38:44.091Z,17.00
2023-01-25T15:41:10.912Z,16.50
2023-01-25T15:43:38.059Z,14.75
2023-01-25T15:46:11.748Z,14.25
2023-01-25T15:48:43.099Z,16.00
2023-01-25T15:51:11.506Z,15.25
2023-01-25T15:53:40.138Z,14.75
2023-01-25T15:56:15.772Z,14.00
2023-01-25T15:58:50.169Z,19.25
2023-01-25T16:01:18.271Z,16.25
2023-01-25T16:03:45.285Z,12.00
2023-01-25T16:06:32.119Z,13.00
2023-01-25T16:09:02.641Z,18.75
2023-01-25T16:11:29.536Z,22.00
2023-01-25T16:13:56.393Z,18.00
2023-01-25T16:16:25.045Z,17.00
2023-01-25T16:18:51.935Z,21.75
2023-01-25T16:21:18.823Z,16.25
2023-01-25T16:23:45.777Z,18.00
2023-01-25T16:26:23.036Z,12.75
2023-01-25T16:28:50.076Z,15.00
2023-01-25T16:31:31.288Z,15.00
2023-01-25T16:33:59.719Z,19.50
2023-01-25T16:36:26.799Z,16.75
2023-01-25T16:38:53.804Z,19.00
2023-01-25T16:41:22.003Z,18.25
2023-01-25T16:43:49.593Z,21.00
2023-01-25T16:46:20.016Z,20.00
2023-01-25T16:48:51.831Z,14.50
2023-01-25T16:51:21.675Z,21.00
2023-01-25T16:53:50.875Z,19.25
2023-01-25T16:56:20.374Z,13.50
2023-01-25T16:58:50.608Z,16.00
2023-01-25T17:01:20.450Z,18.33
2023-01-25T17:03:47.730Z,12.75
2023-01-25T17:06:19.191Z,15.00
2023-01-25T17:08:46.450Z,17.25
2023-01-25T17:11:13.801Z,18.25
2023-01-25T17:13:40.776Z,21.75
2023-01-25T17:16:09.039Z,17.75
2023-01-25T17:18:35.866Z,15.25
2023-01-25T17:21:05.970Z,19.00
2023-01-25T17:23:36.024Z,16.50
2023-01-25T17:26:05.139Z,21.00
2023-01-25T17:28:32.461Z,19.50
2023-01-25T17:30:59.694Z,19.00
2023-01-25T17:33:28.805Z,18.25
2023-01-25T17:35:55.884Z,19.00
2023-01-25T17:38:24.265Z,20.25
2023-01-25T17:40:51.113Z,18.25
2023-01-25T17:43:17.918Z,17.25
2023-01-25T17:45:44.667Z,23.25
2023-01-25T17:48:11.496Z,19.25
2023-01-25T17:50:40.205Z,18.00
2023-01-25T17:53:07.169Z,21.50
2023-01-25T17:55:36.349Z,19.25
2023-01-25T17:58:03.418Z,23.75
2023-01-25T18:00:30.489Z,24.00
2023-01-25T18:02:57.480Z,20.75
2023-01-25T18:05:24.438Z,20.50
2023-01-25T18:07:52.542Z,17.50
2023-01-25T18:10:19.676Z,21.75
2023-01-25T18:12:52.963Z,21.00
2023-01-25T18:15:29.653Z,19.25
2023-01-25T18:17:56.540Z,18.00
2023-01-25T18:20:23.810Z,22.75
2023-01-25T18:22:52.257Z,20.00
2023-01-25T18:25:32.569Z,23.25
2023-01-25T18:27:59.728Z,22.00
2023-01-25T18:30:35.452Z,23.75
2023-01-25T18:33:03.432Z,23.50
2023-01-25T18:35:30.608Z,18.75
2023-01-25T18:37:59.504Z,21.50
2023-01-25T18:40:26.462Z,21.75
2023-01-25T18:42:53.471Z,15.25
2023-01-25T18:45:20.224Z,18.25
2023-01-25T18:47:47.391Z,19.50
2023-01-25T18:50:14.200Z,23.75
2023-01-25T18:52:40.974Z,20.25
2023-01-25T18:55:11.476Z,20.75
2023-01-25T18:57:38.961Z,20.25
2023-01-25T19:00:07.808Z,20.75
2023-01-25T19:02:34.600Z,22.75
2023-01-25T19:05:01.674Z,17.00
2023-01-25T19:07:29.021Z,22.50
2023-01-25T19:09:55.963Z,18.00
2023-01-25T19:12:24.211Z,18.75
2023-01-25T19:14:50.975Z,20.50
2023-01-25T19:17:17.764Z,4.00
2023-01-25T19:19:44.595Z,21.75
2023-01-25T19:22:12.014Z,19.25
2023-01-25T19:24:38.999Z,24.50
2023-01-25T19:27:05.738Z,24.00
2023-01-25T19:29:33.902Z,22.25
2023-01-25T19:32:00.717Z,23.25
2023-01-25T19:34:27.711Z,20.25
2023-01-25T19:36:54.480Z,21.50
2023-01-25T19:39:21.535Z,22.75
2023-01-25T19:41:52.249Z,21.25
2023-01-25T19:44:19.242Z,21.00
2023-01-25T19:46:47.746Z,21.75
2023-01-25T19:49:14.704Z,24.50
2023-01-25T19:51:43.606Z,18.50
2023-01-25T19:54:15.481Z,19.25
2023-01-25T19:56:45.745Z,21.75
2023-01-25T19:59:15.906Z,21.75
2023-01-25T20:01:43.260Z,22.00
2023-01-25T20:04:13.335Z,20.50
2023-01-25T20:06:40.409Z,21.25
2023-01-25T20:09:07.382Z,26.00
2023-01-25T20:11:35.192Z,26.50
2023-01-25T20:14:05.290Z,22.50
2023-01-25T20:16:34.228Z,21.75
2023-01-25T20:19:02.389Z,20.25
2023-01-25T20:21:32.265Z,22.25
2023-01-25T20:24:04.633Z,21.25
2023-01-25T20:26:34.503Z,25.25
2023-01-25T20:29:01.305Z,23.75
2023-01-25T20:31:30.794Z,24.25
2023-01-25T20:34:01.485Z,27.75
2023-01-25T20:36:32.802Z,22.50
2023-01-25T20:38:59.871Z,24.00
2023-01-25T20:41:26.979Z,25.25
2023-01-25T20:43:56.091Z,23.75
2023-01-25T20:46:24.077Z,26.00
2023-01-25T20:48:53.015Z,26.75
2023-01-25T20:51:20.141Z,25.75
2023-01-25T20:53:50.690Z,26.50
2023-01-25T20:56:19.168Z,19.75
2023-01-25T20:58:48.352Z,23.50
2023-01-25T21:01:18.697Z,25.50
2023-01-25T21:03:45.988Z,26.25
2023-01-25T21:06:14.003Z,25.25
2023-01-25T21:08:41.248Z,24.25
2023-01-25T21:11:10.784Z,24.00
2023-01-25T21:13:37.906Z,23.25
2023-01-25T21:16:08.327Z,25.00
2023-01-25T21:18:38.435Z,27.25
2023-01-25T21:21:08.578Z,24.00
2023-01-25T21:23:38.250Z,24.25
2023-01-25T21:26:07.186Z,26.25
2023-01-25T21:28:35.747Z,27.75
2023-01-25T21:31:08.221Z,23.00
2023-01-25T21:33:35.224Z,23.25
2023-01-25T21:36:02.542Z,25.50
2023-01-25T21:38:29.301Z,21.50
2023-01-25T21:41:00.528Z,23.50
2023-01-25T21:43:27.491Z,26.50
2023-01-25T21:45:58.090Z,13.75
2023-01-25T21:48:24.854Z,25.75
2023-01-25T21:50:51.663Z,22.50
2023-01-25T21:53:19.353Z,28.00
2023-01-25T21:55:55.687Z,25.00
2023-01-25T21:58:22.613Z,25.75
2023-01-25T22:00:49.628Z,24.75
2023-01-25T22:03:17.753Z,19.75
2023-01-25T22:05:44.472Z,25.75
2023-01-25T22:08:11.193Z,24.25
2023-01-25T22:10:37.976Z,25.00
2023-01-25T22:13:04.774Z,28.67
2023-01-25T22:15:31.730Z,23.25
2023-01-25T22:17:58.626Z,19.75
2023-01-25T22:20:26.780Z,30.50
2023-01-25T22:22:53.567Z,29.00
2023-01-25T22:25:20.329Z,25.75
2023-01-25T22:27:59.078Z,24.75
2023-01-25T22:30:27.698Z,27.75
2023-01-25T22:32:54.755Z,26.75
2023-01-25T22:35:21.484Z,9.33
2023-01-25T22:37:49.587Z,27.50
2023-01-25T22:40:16.834Z,26.00
2023-01-25T22:42:43.603Z,27.75
2023-01-25T22:45:10.801Z,4.00
2023-01-25T22:47:37.765Z,25.50
2023-01-25T22:50:08.167Z,27.67
2023-01-25T22:52:35.054Z,30.67
2023-01-25T22:55:03.632Z,26.00
2023-01-25T22:57:30.555Z,24.33
2023-01-25T22:59:57.300Z,25.33
2023-01-25T23:02:24.213Z,14.00
2023-01-25T23:04:51.102Z,20.33
2023-01-25T23:07:19.162Z,31.33
2023-01-25T23:09:46.543Z,27.67
2023-01-25T23:12:14.704Z,28.67
2023-01-25T23:14:41.731Z,30.67
2023-01-25T23:17:08.471Z,25.67
2023-01-25T23:19:35.324Z,24.00
2023-01-25T23:22:02.135Z,29.33
2023-01-25T23:24:28.843Z,20.67
2023-01-25T23:26:55.803Z,21.33
2023-01-25T23:29:24.218Z,21.67
2023-01-25T23:31:51.043Z,25.00
2023-01-25T23:34:17.855Z,21.00
2023-01-25T23:36:44.656Z,18.00
2023-01-25T23:39:12.632Z,25.33
2023-01-25T23:41:39.846Z,26.33
2023-01-25T23:44:06.821Z,28.67
2023-01-25T23:46:35.070Z,20.25
2023-01-25T23:49:01.863Z,19.50
2023-01-25T23:51:28.644Z,27.25
2023-01-25T23:53:55.476Z,26.00
2023-01-25T23:56:22.861Z,25.75
2023-01-25T23:58:50.188Z,26.75
